Time;durP1;ratioP1;P1;durP2;ratioP2;P2;SDS_P1;SDS_P2;PMS_P1;PMS_P2;Temp;Humidity;BMP_temperature;BMP_pressure;BME280_temperature;BME280_humidity;BME280_pressure;Samples;Min_cycle;Max_cycle;Signal;HPM_P1;HPM_P2
2023/12/15 00:00:03;;;;;;;39.00;19.73;;;5.80;99.90;;;;;;4987263;28;20089;-76
2023/12/15 00:02:29;;;;;;;42.60;19.40;;;5.80;99.90;;;;;;4976827;28;20476;-75
2023/12/15 00:04:54;;;;;;;38.92;18.20;;;5.80;99.90;;;;;;4991146;28;20073;-76
2023/12/15 00:07:20;;;;;;;39.92;19.02;;;5.90;99.90;;;;;;4983970;28;20027;-75
2023/12/15 00:09:45;;;;;;;36.58;18.60;;;5.90;99.90;;;;;;4989359;28;20047;-75
2023/12/15 00:12:11;;;;;;;38.25;18.10;;;5.90;99.90;;;;;;4995859;28;20404;-76
2023/12/15 00:14:36;;;;;;;37.22;18.73;;;5.90;99.90;;;;;;4989979;28;20042;-75
2023/12/15 00:17:02;;;;;;;43.25;18.75;;;5.90;99.90;;;;;;4991000;28;20410;-75
2023/12/15 00:19:28;;;;;;;40.08;19.08;;;5.90;99.90;;;;;;4977258;28;20053;-75
2023/12/15 00:21:53;;;;;;;34.47;19.40;;;6.00;99.90;;;;;;4981411;28;20048;-75
2023/12/15 00:24:19;;;;;;;40.88;19.90;;;6.00;99.90;;;;;;4990692;28;20034;-75
2023/12/15 00:26:45;;;;;;;41.80;19.38;;;6.00;99.90;;;;;;4989107;28;20485;-75
2023/12/15 00:29:10;;;;;;;38.92;19.27;;;6.00;99.90;;;;;;4985875;28;20046;-75
2023/12/15 00:31:39;;;;;;;43.70;21.17;;;6.00;99.90;;;;;;4985993;28;20053;-75
2023/12/15 00:34:05;;;;;;;41.50;21.08;;;6.10;99.90;;;;;;4991117;28;20070;-75
2023/12/15 00:36:31;;;;;;;41.58;21.58;;;6.10;99.90;;;;;;4990339;28;20065;-75
2023/12/15 00:38:57;;;;;;;45.45;21.70;;;6.10;99.90;;;;;;4967768;28;20069;-75
2023/12/15 00:41:22;;;;;;;44.08;21.98;;;6.10;99.90;;;;;;4988316;28;20045;-75
2023/12/15 00:43:48;;;;;;;50.28;22.88;;;6.20;99.90;;;;;;4985507;28;20047;-75
2023/12/15 00:46:14;;;;;;;49.72;23.15;;;6.20;99.90;;;;;;4979282;28;20041;-75
2023/12/15 00:48:39;;;;;;;46.55;23.85;;;6.20;99.90;;;;;;4965949;28;20124;-75
2023/12/15 00:51:05;;;;;;;46.35;23.17;;;6.30;99.90;;;;;;4981251;28;20041;-75
2023/12/15 00:53:32;;;;;;;47.15;23.92;;;6.20;99.90;;;;;;4998911;28;20038;-75
2023/12/15 00:55:59;;;;;;;48.97;23.27;;;6.30;99.90;;;;;;4998097;28;20049;-75
2023/12/15 00:58:25;;;;;;;42.60;23.23;;;6.30;99.90;;;;;;4986428;28;20207;-75
2023/12/15 01:00:51;;;;;;;47.70;24.10;;;6.30;99.90;;;;;;4981088;28;20133;-75
2023/12/15 01:03:16;;;;;;;48.88;24.15;;;6.40;99.90;;;;;;4989516;28;20046;-75
2023/12/15 01:05:42;;;;;;;41.70;23.08;;;6.30;99.90;;;;;;4990847;28;20045;-75
2023/12/15 01:08:07;;;;;;;48.67;24.00;;;6.40;99.90;;;;;;4994665;28;20556;-75
2023/12/15 01:10:33;;;;;;;48.03;23.70;;;6.30;99.90;;;;;;4989797;28;20042;-75
2023/12/15 01:12:59;;;;;;;49.10;23.65;;;6.40;99.90;;;;;;4986194;28;20054;-75
2023/12/15 01:15:24;;;;;;;49.72;23.48;;;6.40;99.90;;;;;;4989823;28;20042;-75
2023/12/15 01:17:50;;;;;;;53.00;24.23;;;6.40;99.90;;;;;;4987045;28;20139;-75
2023/12/15 01:20:17;;;;;;;47.40;23.70;;;6.40;99.90;;;;;;4992520;28;20038;-75
2023/12/15 01:22:43;;;;;;;49.03;24.05;;;6.40;99.90;;;;;;4992547;28;20268;-75
2023/12/15 01:25:09;;;;;;;42.13;24.45;;;6.40;99.90;;;;;;4992682;28;20645;-75
2023/12/15 01:27:34;;;;;;;47.90;23.63;;;6.40;99.90;;;;;;4993530;28;20471;-75
2023/12/15 01:30:00;;;;;;;48.85;24.02;;;6.40;99.90;;;;;;4993790;28;20061;-75
2023/12/15 01:32:26;;;;;;;48.85;25.02;;;6.40;99.90;;;;;;4983940;28;20078;-75
2023/12/15 01:34:51;;;;;;;49.45;23.40;;;6.40;99.90;;;;;;4994779;28;20448;-75
2023/12/15 01:37:17;;;;;;;45.90;24.13;;;6.40;99.90;;;;;;4994792;28;20485;-75
2023/12/15 01:39:42;;;;;;;50.03;25.45;;;6.40;99.90;;;;;;4989516;28;20045;-75
2023/12/15 01:42:08;;;;;;;47.92;24.02;;;6.50;99.90;;;;;;4994720;28;20042;-75
2023/12/15 01:44:33;;;;;;;47.22;22.95;;;7.00;99.90;;;;;;4986070;28;20093;-75
2023/12/15 01:47:01;;;;;;;48.28;25.17;;;6.40;99.90;;;;;;4990258;28;20062;-75
2023/12/15 01:49:28;;;;;;;47.83;24.58;;;6.40;99.90;;;;;;4991970;28;20537;-75
2023/12/15 01:51:54;;;;;;;45.50;23.45;;;6.50;99.90;;;;;;4987356;28;20038;-76
2023/12/15 01:54:19;;;;;;;52.53;23.23;;;6.50;99.90;;;;;;4986163;28;20038;-75
2023/12/15 01:56:45;;;;;;;53.00;24.08;;;6.50;99.90;;;;;;4994489;28;20134;-75
2023/12/15 01:59:11;;;;;;;48.10;24.95;;;6.50;99.90;;;;;;4998514;28;20045;-76
2023/12/15 02:01:37;;;;;;;54.90;25.27;;;6.50;99.90;;;;;;4994450;28;20513;-75
2023/12/15 02:04:02;;;;;;;55.30;25.25;;;6.50;99.90;;;;;;4981858;28;20042;-75
2023/12/15 02:06:28;;;;;;;50.33;23.77;;;6.50;99.90;;;;;;4992407;28;20390;-75
2023/12/15 02:08:53;;;;;;;59.90;25.55;;;6.50;99.90;;;;;;4992886;28;20049;-75
2023/12/15 02:11:19;;;;;;;50.65;24.88;;;6.50;99.90;;;;;;4982075;28;20066;-75
2023/12/15 02:13:44;;;;;;;55.08;25.63;;;6.50;99.90;;;;;;4993909;28;20038;-75
2023/12/15 02:16:10;;;;;;;53.55;26.40;;;6.60;99.90;;;;;;4984378;28;20034;-75
2023/12/15 02:18:36;;;;;;;58.70;26.02;;;6.60;99.90;;;;;;4990461;28;20077;-76
2023/12/15 02:21:01;;;;;;;56.97;26.27;;;6.60;99.90;;;;;;4977413;28;20085;-75
2023/12/15 02:23:27;;;;;;;52.78;26.42;;;6.60;99.90;;;;;;4990788;28;20042;-75
2023/12/15 02:25:53;;;;;;;51.63;25.88;;;6.70;99.90;;;;;;4982233;28;20089;-75
2023/12/15 02:28:18;;;;;;;51.67;25.77;;;6.60;99.90;;;;;;4978274;28;20053;-75
2023/12/15 02:30:44;;;;;;;52.15;25.00;;;6.60;99.90;;;;;;4988912;28;20044;-75
2023/12/15 02:33:11;;;;;;;61.65;25.70;;;6.60;99.90;;;;;;4970600;28;20038;-75
2023/12/15 02:35:37;;;;;;;53.13;26.08;;;6.60;99.90;;;;;;4993423;28;20049;-75
2023/12/15 02:38:07;;;;;;;55.22;28.38;;;6.60;99.90;;;;;;4987175;28;20472;-75
2023/12/15 02:40:36;;;;;;;56.88;27.70;;;6.60;99.90;;;;;;4985813;28;20409;-76
2023/12/15 02:43:02;;;;;;;64.28;28.42;;;6.60;99.90;;;;;;4989614;28;20042;-75
2023/12/15 02:45:27;;;;;;;69.65;27.92;;;6.60;99.90;;;;;;4991228;28;20038;-75
2023/12/15 02:47:53;;;;;;;62.78;27.55;;;6.60;99.90;;;;;;4993449;28;20109;-75
2023/12/15 02:50:19;;;;;;;69.88;29.27;;;6.60;99.90;;;;;;4991650;28;20531;-75
2023/12/15 02:52:45;;;;;;;60.17;27.60;;;6.70;99.90;;;;;;4988748;28;20097;-75
2023/12/15 02:55:12;;;;;;;71.07;28.23;;;6.70;99.90;;;;;;4985934;28;20109;-74
2023/12/15 02:57:39;;;;;;;69.57;28.10;;;6.70;99.90;;;;;;4992303;28;20038;-75
2023/12/15 03:00:05;;;;;;;70.88;29.30;;;6.70;99.90;;;;;;4996468;28;20042;-75
2023/12/15 03:02:31;;;;;;;72.88;30.35;;;6.60;99.90;;;;;;4990566;28;20042;-75
2023/12/15 03:04:56;;;;;;;78.28;31.42;;;6.70;99.90;;;;;;4989750;28;20046;-76
2023/12/15 03:07:23;;;;;;;77.55;31.00;;;6.70;99.90;;;;;;4983717;28;20031;-76
2023/12/15 03:09:49;;;;;;;78.35;30.23;;;6.70;99.90;;;;;;4975462;28;20045;-75
2023/12/15 03:12:15;;;;;;;73.40;31.02;;;6.70;99.90;;;;;;4987517;28;20031;-76
2023/12/15 03:14:41;;;;;;;74.70;30.83;;;6.70;99.90;;;;;;4987153;28;20070;-75
2023/12/15 03:17:07;;;;;;;76.07;30.80;;;6.70;99.90;;;;;;4981098;28;20165;-75
2023/12/15 03:19:33;;;;;;;87.00;32.05;;;6.70;99.90;;;;;;4984481;28;20528;-75
2023/12/15 03:21:59;;;;;;;77.68;30.75;;;6.70;99.90;;;;;;4978494;28;20042;-75
2023/12/15 03:24:25;;;;;;;76.35;30.65;;;6.70;99.90;;;;;;4978767;28;20141;-75
2023/12/15 03:26:50;;;;;;;83.68;30.90;;;6.70;99.90;;;;;;4994564;28;20066;-75
2023/12/15 03:29:17;;;;;;;69.68;30.30;;;6.70;99.90;;;;;;4983999;28;20046;-75
2023/12/15 03:31:42;;;;;;;83.60;31.92;;;6.70;99.90;;;;;;4990911;28;20039;-75
2023/12/15 03:34:08;;;;;;;83.43;33.10;;;6.70;99.90;;;;;;4992885;28;20042;-75
2023/12/15 03:36:38;;;;;;;94.82;33.05;;;6.70;99.90;;;;;;4988643;28;20043;-75
2023/12/15 03:39:05;;;;;;;79.82;32.22;;;6.70;99.90;;;;;;4991342;28;20039;-75
2023/12/15 03:41:31;;;;;;;89.82;32.90;;;6.70;99.90;;;;;;4982887;28;20507;-75
2023/12/15 03:43:57;;;;;;;99.80;34.20;;;6.70;99.90;;;;;;5008534;23;20558;-64
2023/12/15 03:46:22;;;;;;;81.43;32.22;;;6.70;99.90;;;;;;4987526;28;20046;-62
2023/12/15 03:48:48;;;;;;;84.10;32.90;;;6.70;99.90;;;;;;4988036;28;20054;-64
2023/12/15 03:51:14;;;;;;;89.82;33.28;;;6.70;99.90;;;;;;4989999;28;20042;-64
2023/12/15 03:53:39;;;;;;;93.30;34.22;;;6.70;99.90;;;;;;4989524;28;20391;-63
2023/12/15 03:56:06;;;;;;;86.10;33.58;;;6.70;99.90;;;;;;4990866;28;20030;-61
2023/12/15 03:58:31;;;;;;;87.55;32.90;;;6.70;99.90;;;;;;4995311;28;20045;-63
2023/12/15 04:00:57;;;;;;;94.75;33.63;;;6.80;99.90;;;;;;4989812;28;20038;-64
2023/12/15 04:03:23;;;;;;;98.93;32.83;;;6.70;99.90;;;;;;4984268;28;20038;-63
2023/12/15 04:05:49;;;;;;;98.95;34.25;;;6.70;99.90;;;;;;4988807;28;20062;-62
2023/12/15 04:08:15;;;;;;;93.65;33.83;;;6.70;99.90;;;;;;4987693;28;20045;-64
2023/12/15 04:10:40;;;;;;;89.28;33.72;;;6.80;99.90;;;;;;4985178;28;20041;-64
2023/12/15 04:13:06;;;;;;;105.78;34.60;;;6.70;99.90;;;;;;4986706;28;20042;-63
2023/12/15 04:15:31;;;;;;;96.03;34.33;;;6.80;99.90;;;;;;4986806;28;20034;-61
2023/12/15 04:17:57;;;;;;;105.80;33.80;;;6.80;99.90;;;;;;4985434;28;20125;-64
2023/12/15 04:20:22;;;;;;;101.93;34.65;;;6.80;99.90;;;;;;4990789;28;20031;-64
2023/12/15 04:22:48;;;;;;;93.32;33.22;;;6.80;99.90;;;;;;4989788;28;20065;-64
2023/12/15 04:25:14;;;;;;;93.57;33.05;;;6.80;99.90;;;;;;4987258;28;20052;-63
2023/12/15 04:27:40;;;;;;;101.90;34.80;;;6.80;99.90;;;;;;4989163;28;20045;-62
2023/12/15 04:30:06;;;;;;;96.35;33.28;;;6.80;99.90;;;;;;4982839;28;20034;-64
2023/12/15 04:32:32;;;;;;;103.97;37.97;;;6.80;99.90;;;;;;4983808;28;20643;-62
2023/12/15 04:34:57;;;;;;;112.53;36.03;;;6.80;99.90;;;;;;4989317;28;20039;-64
2023/12/15 04:37:23;;;;;;;99.38;33.10;;;6.80;99.90;;;;;;4990156;28;20030;-64
2023/12/15 04:39:48;;;;;;;105.43;35.20;;;6.80;99.90;;;;;;4989978;28;20065;-63
2023/12/15 04:42:14;;;;;;;105.10;34.63;;;6.80;99.90;;;;;;4988716;28;20034;-63
2023/12/15 04:44:40;;;;;;;100.15;33.92;;;6.80;99.90;;;;;;4981717;28;20103;-63
2023/12/15 04:47:05;;;;;;;102.38;33.70;;;6.70;99.90;;;;;;4990937;28;20058;-64
2023/12/15 04:49:31;;;;;;;89.50;34.70;;;6.70;99.90;;;;;;4990119;28;20038;-63
2023/12/15 04:51:58;;;;;;;113.90;35.50;;;6.80;99.90;;;;;;4988466;28;20037;-63
2023/12/15 04:54:24;;;;;;;99.80;33.22;;;6.80;99.90;;;;;;4988056;28;20039;-64
2023/12/15 04:56:50;;;;;;;103.95;34.42;;;6.70;99.90;;;;;;4987973;28;20030;-64
2023/12/15 04:59:15;;;;;;;105.18;34.63;;;6.80;99.90;;;;;;4987697;28;20495;-63
2023/12/15 05:01:43;;;;;;;132.32;37.10;;;6.80;99.90;;;;;;4988706;28;20439;-63
2023/12/15 05:04:09;;;;;;;92.32;33.20;;;6.80;99.90;;;;;;4989010;28;20045;-63
2023/12/15 05:06:35;;;;;;;111.75;35.70;;;6.80;99.90;;;;;;4985971;28;20039;-64
2023/12/15 05:09:04;;;;;;;113.43;35.72;;;6.80;99.90;;;;;;4988964;28;20045;-64
2023/12/15 05:11:33;;;;;;;110.82;35.90;;;6.80;99.90;;;;;;4986733;28;20518;-64
2023/12/15 05:13:58;;;;;;;107.13;35.95;;;6.70;99.90;;;;;;4983609;28;20080;-64
2023/12/15 05:16:24;;;;;;;105.82;33.88;;;6.80;99.90;;;;;;4979088;28;20457;-64
2023/12/15 05:18:50;;;;;;;101.55;34.65;;;6.80;99.90;;;;;;4988315;28;20112;-64
2023/12/15 05:21:15;;;;;;;105.70;33.75;;;6.80;99.90;;;;;;4983773;28;20070;-63
2023/12/15 05:23:41;;;;;;;102.18;33.65;;;6.80;99.90;;;;;;4980796;28;20066;-64
2023/12/15 05:26:06;;;;;;;106.88;35.25;;;6.70;99.90;;;;;;4986380;28;20394;-64
2023/12/15 05:28:32;;;;;;;100.95;33.88;;;6.70;99.90;;;;;;4983686;28;20042;-64
2023/12/15 05:30:58;;;;;;;109.03;34.17;;;6.70;99.90;;;;;;4988791;28;20042;-62
2023/12/15 05:33:24;;;;;;;99.55;34.45;;;6.70;99.90;;;;;;4980048;28;20110;-64
2023/12/15 05:35:49;;;;;;;89.70;33.10;;;6.70;99.90;;;;;;4988330;28;20042;-64
2023/12/15 05:38:16;;;;;;;92.00;32.97;;;6.70;99.90;;;;;;4985345;28;20039;-64
2023/12/15 05:40:42;;;;;;;93.30;32.45;;;6.70;99.90;;;;;;4979867;28;20093;-62
2023/12/15 05:43:07;;;;;;;96.10;33.40;;;6.70;99.90;;;;;;4989204;28;20034;-64
2023/12/15 05:45:33;;;;;;;106.93;33.80;;;6.70;99.90;;;;;;4980187;28;20042;-64
2023/12/15 05:47:58;;;;;;;93.35;33.00;;;6.70;99.90;;;;;;4987575;28;20045;-63
2023/12/15 05:50:24;;;;;;;95.55;33.72;;;6.70;99.90;;;;;;4980559;28;20483;-64
2023/12/15 05:52:49;;;;;;;90.53;33.63;;;6.70;99.90;;;;;;4988846;28;20687;-64
2023/12/15 05:55:15;;;;;;;112.05;33.95;;;6.70;99.90;;;;;;4989792;28;20038;-64
2023/12/15 05:57:40;;;;;;;96.05;33.08;;;6.70;99.90;;;;;;4989679;28;20030;-63
2023/12/15 06:00:08;;;;;;;106.35;32.25;;;6.70;99.90;;;;;;4987970;28;20041;-64
2023/12/15 06:02:34;;;;;;;104.25;31.70;;;6.60;99.90;;;;;;4990843;28;20049;-64
2023/12/15 06:04:59;;;;;;;87.55;32.40;;;6.60;99.90;;;;;;4988462;28;20050;-64
2023/12/15 06:07:25;;;;;;;84.55;31.88;;;6.60;99.90;;;;;;4986264;28;20066;-64
2023/12/15 06:09:51;;;;;;;89.57;30.60;;;6.60;99.90;;;;;;4992146;28;20454;-62
2023/12/15 06:12:16;;;;;;;95.70;32.70;;;6.60;99.90;;;;;;4991516;28;20074;-63
2023/12/15 06:14:42;;;;;;;89.07;32.17;;;6.60;99.90;;;;;;4991128;28;20039;-64
2023/12/15 06:17:08;;;;;;;81.63;30.45;;;6.60;99.90;;;;;;4991307;28;20038;-63
2023/12/15 06:19:38;;;;;;;98.82;32.75;;;6.50;99.90;;;;;;4985722;28;20476;-64
2023/12/15 06:22:03;;;;;;;77.53;30.15;;;6.50;99.90;;;;;;4991994;28;20035;-64
2023/12/15 06:24:29;;;;;;;79.80;30.73;;;6.50;99.90;;;;;;4991470;28;20410;-61
2023/12/15 06:26:55;;;;;;;76.72;29.17;;;6.50;99.90;;;;;;4993002;28;20050;-64
2023/12/15 06:29:20;;;;;;;90.75;30.83;;;6.40;99.90;;;;;;4992915;28;20035;-63
2023/12/15 06:31:47;;;;;;;76.18;28.10;;;6.40;99.90;;;;;;4992269;28;20488;-63
2023/12/15 06:34:13;;;;;;;78.25;29.27;;;6.40;99.90;;;;;;4987913;28;20116;-63
2023/12/15 06:36:39;;;;;;;71.80;28.70;;;6.40;99.90;;;;;;4986367;28;20448;-64
2023/12/15 06:39:05;;;;;;;80.28;29.13;;;6.30;99.90;;;;;;4992612;28;20060;-64
2023/12/15 06:41:30;;;;;;;80.05;29.35;;;6.40;99.90;;;;;;4991516;28;20058;-64
2023/12/15 06:43:56;;;;;;;72.55;28.70;;;6.30;99.90;;;;;;4992117;28;20038;-63
2023/12/15 06:46:22;;;;;;;79.85;29.20;;;6.30;99.90;;;;;;4990207;28;20034;-64
2023/12/15 06:48:47;;;;;;;73.90;29.35;;;6.30;99.90;;;;;;4990904;28;20053;-64
2023/12/15 06:51:14;;;;;;;83.70;28.35;;;6.30;99.90;;;;;;4995929;28;20398;-63
2023/12/15 06:53:40;;;;;;;76.97;28.38;;;6.30;99.90;;;;;;4980421;28;20064;-64
2023/12/15 06:56:06;;;;;;;72.07;27.85;;;6.30;99.90;;;;;;4984535;28;20487;-64
2023/12/15 06:58:32;;;;;;;79.22;29.10;;;6.30;99.90;;;;;;4972809;28;20034;-63
2023/12/15 07:00:57;;;;;;;69.63;26.67;;;6.30;99.90;;;;;;4984348;28;20037;-64
2023/12/15 07:03:23;;;;;;;73.80;28.35;;;6.30;99.90;;;;;;4987556;28;20049;-63
2023/12/15 07:05:48;;;;;;;83.18;28.70;;;6.20;99.90;;;;;;4990498;28;20672;-62
2023/12/15 07:08:14;;;;;;;79.07;27.75;;;6.20;99.90;;;;;;4992146;28;20044;-64
2023/12/15 07:10:39;;;;;;;88.38;28.75;;;6.20;99.90;;;;;;4991075;28;20038;-64
2023/12/15 07:13:05;;;;;;;76.40;28.13;;;6.30;99.90;;;;;;4987467;28;20034;-64
2023/12/15 07:15:32;;;;;;;76.47;28.48;;;6.30;99.90;;;;;;4985487;28;20471;-63
2023/12/15 07:17:57;;;;;;;78.30;27.45;;;6.30;99.90;;;;;;4986476;28;20042;-63
2023/12/15 07:20:25;;;;;;;79.30;28.73;;;6.30;99.90;;;;;;4990740;28;20034;-63
2023/12/15 07:22:51;;;;;;;74.25;28.55;;;6.40;99.90;;;;;;4991068;28;20042;-64
2023/12/15 07:25:17;;;;;;;76.57;27.20;;;6.40;99.90;;;;;;4990895;28;20092;-64
2023/12/15 07:27:43;;;;;;;81.68;27.05;;;6.40;99.90;;;;;;4991041;28;20058;-63
2023/12/15 07:30:09;;;;;;;79.45;27.90;;;6.40;99.90;;;;;;4989842;28;20053;-62
2023/12/15 07:32:35;;;;;;;83.93;27.00;;;6.40;99.90;;;;;;4989621;28;20891;-64
2023/12/15 07:35:00;;;;;;;76.15;28.75;;;6.40;99.90;;;;;;4991292;28;20046;-64
2023/12/15 07:37:26;;;;;;;69.13;27.42;;;6.40;99.90;;;;;;4991937;28;20042;-63
2023/12/15 07:39:54;;;;;;;90.20;28.17;;;6.40;99.90;;;;;;4987838;28;20041;-64
2023/12/15 07:42:20;;;;;;;75.30;26.27;;;6.40;99.90;;;;;;4991481;28;20046;-63
2023/12/15 07:44:45;;;;;;;76.30;27.77;;;6.40;99.90;;;;;;4976662;28;20042;-61
2023/12/15 07:47:11;;;;;;;68.03;26.95;;;6.40;99.90;;;;;;4986026;28;20046;-64
2023/12/15 07:49:37;;;;;;;79.95;28.70;;;6.40;99.90;;;;;;4983190;28;20404;-64
2023/12/15 07:52:02;;;;;;;70.85;26.20;;;6.50;99.90;;;;;;4990121;28;20038;-64
2023/12/15 07:54:31;;;;;;;71.68;26.30;;;6.50;99.90;;;;;;4987467;28;20041;-61
2023/12/15 07:56:57;;;;;;;71.82;26.25;;;6.50;99.90;;;;;;4985515;28;20475;-64
2023/12/15 07:59:23;;;;;;;74.78;26.33;;;6.50;99.90;;;;;;4986041;28;20149;-64
2023/12/15 08:01:50;;;;;;;69.45;25.23;;;6.50;99.90;;;;;;4984130;28;20042;-64
2023/12/15 08:04:15;;;;;;;65.32;25.17;;;6.50;99.90;;;;;;4991434;28;20096;-64
2023/12/15 08:06:41;;;;;;;63.83;25.33;;;6.50;99.90;;;;;;4981681;28;20086;-64
2023/12/15 08:09:07;;;;;;;67.85;24.92;;;6.50;99.90;;;;;;4991039;28;20125;-64
2023/12/15 08:11:32;;;;;;;62.20;24.23;;;6.60;99.90;;;;;;4990458;28;20038;-61
2023/12/15 08:13:58;;;;;;;66.57;25.10;;;6.60;99.90;;;;;;4983581;28;20077;-64
2023/12/15 08:16:24;;;;;;;59.83;23.27;;;6.60;99.90;;;;;;4990565;28;20046;-64
2023/12/15 08:18:50;;;;;;;59.22;23.05;;;6.50;99.90;;;;;;4984249;28;20045;-63
2023/12/15 08:21:15;;;;;;;57.28;22.27;;;6.50;99.90;;;;;;4987841;28;20048;-64
2023/12/15 08:23:41;;;;;;;55.55;22.75;;;6.60;99.90;;;;;;4986056;28;20050;-64
2023/12/15 08:26:07;;;;;;;70.40;23.98;;;6.50;99.90;;;;;;4989674;28;20026;-63
2023/12/15 08:28:32;;;;;;;66.40;23.58;;;6.50;99.90;;;;;;4990454;28;20123;-64
2023/12/15 08:30:58;;;;;;;62.83;25.25;;;6.60;99.90;;;;;;4984180;28;20031;-64
2023/12/15 08:33:24;;;;;;;58.90;23.38;;;6.60;99.90;;;;;;4986159;28;20044;-64
2023/12/15 08:35:50;;;;;;;58.83;22.90;;;6.60;99.90;;;;;;4980825;28;20084;-64
2023/12/15 08:38:16;;;;;;;65.95;24.13;;;6.60;99.90;;;;;;4981812;28;20042;-64
2023/12/15 08:40:41;;;;;;;55.30;23.08;;;6.50;99.90;;;;;;4981511;28;20062;-64
2023/12/15 08:43:07;;;;;;;59.40;23.42;;;6.50;99.90;;;;;;4980272;28;20045;-62
2023/12/15 08:45:32;;;;;;;66.70;23.52;;;6.50;99.90;;;;;;4984246;28;20034;-64
2023/12/15 08:47:58;;;;;;;56.45;23.35;;;6.50;99.90;;;;;;4983994;28;20125;-64
2023/12/15 08:50:24;;;;;;;60.08;21.67;;;6.60;99.90;;;;;;4973319;28;20046;-62
2023/12/15 08:52:49;;;;;;;64.68;22.70;;;6.60;99.90;;;;;;4980919;28;20034;-63
2023/12/15 08:55:15;;;;;;;50.33;21.45;;;6.60;99.90;;;;;;4988479;28;20038;-64
2023/12/15 08:57:41;;;;;;;56.30;21.60;;;6.60;99.90;;;;;;4984342;28;20081;-65
2023/12/15 09:00:07;;;;;;;51.97;22.15;;;6.60;99.90;;;;;;4986613;28;20042;-64
2023/12/15 09:02:33;;;;;;;54.55;22.25;;;6.60;99.90;;;;;;4988623;28;20057;-64
2023/12/15 09:05:00;;;;;;;53.03;21.90;;;6.60;99.90;;;;;;4989874;28;20050;-65
2023/12/15 09:07:26;;;;;;;59.00;21.85;;;6.70;99.90;;;;;;4978497;28;20058;-63
2023/12/15 09:09:52;;;;;;;55.63;22.17;;;6.70;99.90;;;;;;4979024;28;20041;-64
2023/12/15 09:12:17;;;;;;;59.38;22.73;;;6.70;99.90;;;;;;4982014;28;20216;-65
2023/12/15 09:14:43;;;;;;;65.05;20.98;;;6.70;99.90;;;;;;4986385;28;20505;-62
2023/12/15 09:17:13;;;;;;;62.70;21.45;;;6.70;99.90;;;;;;4986244;28;20046;-65
2023/12/15 09:19:39;;;;;;;52.47;21.20;;;6.80;99.90;;;;;;4987296;28;20457;-64
2023/12/15 09:22:05;;;;;;;53.40;20.05;;;6.80;99.90;;;;;;4985059;28;20406;-65
2023/12/15 09:24:31;;;;;;;62.35;20.48;;;6.80;99.90;;;;;;4986487;28;20046;-64
2023/12/15 09:26:56;;;;;;;47.35;19.30;;;6.80;99.90;;;;;;4988094;28;20045;-64
2023/12/15 09:29:22;;;;;;;48.78;18.98;;;6.90;99.90;;;;;;4986441;28;20034;-65
2023/12/15 09:31:48;;;;;;;55.70;19.63;;;6.90;99.90;;;;;;4982149;28;20034;-64
2023/12/15 09:34:13;;;;;;;51.42;18.02;;;6.90;99.90;;;;;;4984076;28;20463;-64
2023/12/15 09:36:39;;;;;;;42.80;16.95;;;7.00;99.90;;;;;;4985544;28;20050;-64
2023/12/15 09:39:04;;;;;;;48.92;15.80;;;7.10;99.90;;;;;;4989629;28;20038;-62
2023/12/15 09:41:32;;;;;;;52.38;16.13;;;7.10;99.90;;;;;;4984311;28;20519;-65
2023/12/15 09:43:57;;;;;;;50.97;15.30;;;7.20;99.90;;;;;;4992245;28;20049;-64
2023/12/15 09:46:23;;;;;;;50.05;16.05;;;7.30;99.90;;;;;;5005390;23;20046;-62
2023/12/15 09:48:50;;;;;;;42.97;15.82;;;7.30;99.90;;;;;;4986864;28;20042;-63
2023/12/15 09:51:22;;;;;;;42.97;14.82;;;7.30;99.90;;;;;;4993120;28;20041;-63
2023/12/15 09:53:49;;;;;;;41.10;13.90;;;7.40;99.90;;;;;;4992395;28;20030;-64
2023/12/15 09:56:15;;;;;;;48.50;15.57;;;7.40;99.90;;;;;;4992582;28;20049;-64
2023/12/15 09:58:41;;;;;;;43.38;14.20;;;7.40;99.90;;;;;;4993481;28;20038;-64
2023/12/15 10:01:06;;;;;;;45.33;16.50;;;7.40;99.90;;;;;;4993499;28;20091;-64
2023/12/15 10:03:32;;;;;;;38.42;14.50;;;7.50;99.90;;;;;;4993470;28;20055;-64
2023/12/15 10:05:58;;;;;;;52.50;15.32;;;7.50;99.90;;;;;;4992987;28;20037;-63
2023/12/15 10:08:24;;;;;;;38.72;14.60;;;7.60;99.90;;;;;;4990861;28;20034;-63
2023/12/15 10:10:52;;;;;;;44.30;14.45;;;7.60;99.90;;;;;;4992239;28;20034;-64
2023/12/15 10:13:18;;;;;;;45.15;13.45;;;7.60;99.90;;;;;;4993391;28;20371;-64
2023/12/15 10:15:48;;;;;;;43.42;13.32;;;7.70;99.90;;;;;;5006251;28;20042;-63
2023/12/15 10:18:14;;;;;;;46.53;13.82;;;7.70;99.90;;;;;;4993471;28;20376;-64
2023/12/15 10:20:41;;;;;;;43.00;14.85;;;7.80;99.90;;;;;;4992980;28;20040;-62
2023/12/15 10:23:06;;;;;;;41.78;13.40;;;7.80;99.90;;;;;;4991953;28;20121;-64
2023/12/15 10:25:33;;;;;;;46.42;13.13;;;7.80;99.90;;;;;;4992888;28;20121;-63
2023/12/15 10:27:59;;;;;;;41.28;13.30;;;7.90;99.90;;;;;;4985339;28;20066;-64
2023/12/15 10:30:25;;;;;;;48.47;12.68;;;7.90;99.90;;;;;;4995154;28;20070;-63
2023/12/15 10:32:53;;;;;;;41.70;12.35;;;7.90;99.90;;;;;;4992903;28;20046;-64
2023/12/15 10:35:22;;;;;;;35.65;11.98;;;8.00;99.90;;;;;;4992492;28;20038;-63
2023/12/15 10:37:48;;;;;;;42.85;12.07;;;8.00;99.90;;;;;;4990631;28;20042;-63
2023/12/15 10:40:15;;;;;;;39.33;11.30;;;8.10;99.90;;;;;;4991651;28;20031;-64
2023/12/15 10:42:41;;;;;;;37.28;11.13;;;8.10;99.90;;;;;;4992274;28;20038;-64
2023/12/15 10:45:08;;;;;;;37.03;11.60;;;8.10;99.90;;;;;;4985349;28;20042;-64
2023/12/15 10:47:34;;;;;;;39.35;10.73;;;8.10;99.90;;;;;;4992516;28;20038;-64
2023/12/15 10:50:01;;;;;;;42.80;10.57;;;8.10;99.90;;;;;;4992479;28;20045;-64
2023/12/15 10:52:27;;;;;;;45.08;9.98;;;8.10;99.90;;;;;;5005719;28;20042;-63
2023/12/15 10:54:54;;;;;;;32.95;10.48;;;8.10;99.90;;;;;;4990530;28;20054;-62
2023/12/15 10:57:21;;;;;;;38.95;9.63;;;8.20;99.90;;;;;;4992601;28;20110;-64
2023/12/15 10:59:50;;;;;;;44.15;10.75;;;8.20;99.90;;;;;;4994601;28;20046;-64
2023/12/15 11:02:18;;;;;;;39.80;9.45;;;8.20;99.90;;;;;;4990096;28;20042;-64
2023/12/15 11:04:48;;;;;;;34.53;9.00;;;8.20;99.90;;;;;;4979115;28;20053;-63
2023/12/15 11:07:18;;;;;;;37.05;10.13;;;8.30;99.90;;;;;;4988071;28;20128;-64
2023/12/15 11:09:44;;;;;;;44.40;8.98;;;8.30;99.90;;;;;;4991848;28;20042;-64
2023/12/15 11:12:32;;;;;;;37.88;10.05;;;8.30;99.90;;;;;;4985861;28;20042;-60
2023/12/15 11:15:03;;;;;;;34.33;8.30;;;8.30;99.90;;;;;;4989420;28;20042;-62
2023/12/15 11:17:29;;;;;;;37.15;8.70;;;8.30;99.90;;;;;;4999576;28;20088;-64
2023/12/15 11:20:12;;;;;;;42.95;8.45;;;8.30;99.90;;;;;;4991554;28;20506;-64
2023/12/15 11:22:55;;;;;;;41.70;7.25;;;8.40;99.90;;;;;;4989075;28;20805;-60
2023/12/15 11:25:34;;;;;;;41.17;7.57;;;8.40;99.90;;;;;;4990647;28;20042;-63
2023/12/15 11:28:13;;;;;;;30.35;7.82;;;8.50;99.90;;;;;;4986952;28;20043;-64
2023/12/15 11:30:41;;;;;;;38.85;8.18;;;8.50;99.90;;;;;;4991571;28;20072;-64
2023/12/15 11:33:31;;;;;;;28.50;6.30;;;8.50;99.90;;;;;;4991778;28;20038;-64
2023/12/15 11:36:03;;;;;;;31.88;7.10;;;8.50;99.90;;;;;;4989072;28;20054;-64
2023/12/15 11:38:29;;;;;;;29.98;6.57;;;8.60;99.90;;;;;;4991314;28;20066;-64
2023/12/15 11:40:56;;;;;;;35.42;7.25;;;8.50;99.90;;;;;;4990246;28;20104;-64
2023/12/15 11:43:25;;;;;;;33.55;7.03;;;8.60;99.90;;;;;;4991358;28;20038;-64
2023/12/15 11:45:52;;;;;;;46.63;8.30;;;8.60;99.90;;;;;;4989268;28;20058;-63
2023/12/15 11:48:18;;;;;;;37.50;7.03;;;8.60;99.90;;;;;;4991291;28;20049;-65
2023/12/15 11:50:45;;;;;;;37.83;7.57;;;8.60;99.90;;;;;;4990746;28;20410;-61
2023/12/15 11:53:12;;;;;;;39.38;6.70;;;8.60;99.90;;;;;;4991603;28;20034;-65
2023/12/15 11:55:39;;;;;;;31.45;6.90;;;8.60;99.90;;;;;;4990705;28;20125;-64
2023/12/15 11:58:11;;;;;;;37.42;7.93;;;8.60;99.90;;;;;;4990964;28;20034;-65
2023/12/15 12:00:37;;;;;;;30.98;7.18;;;8.70;99.90;;;;;;4990659;28;20034;-62
2023/12/15 12:03:03;;;;;;;38.42;7.22;;;8.70;99.90;;;;;;4990979;28;20038;-65
2023/12/15 12:05:30;;;;;;;33.55;6.63;;;8.70;99.90;;;;;;4986338;28;20046;-62
2023/12/15 12:07:59;;;;;;;34.75;6.28;;;8.70;99.90;;;;;;4986948;28;20403;-64
2023/12/15 12:10:30;;;;;;;40.30;6.85;;;8.80;99.90;;;;;;4989916;28;20088;-62
2023/12/15 12:12:57;;;;;;;35.70;7.20;;;8.80;99.90;;;;;;4990297;28;20060;-65
2023/12/15 12:15:23;;;;;;;32.05;6.85;;;8.80;99.90;;;;;;4989810;28;20039;-64
2023/12/15 12:17:49;;;;;;;32.35;7.10;;;8.80;99.90;;;;;;4989196;28;20089;-65
2023/12/15 12:20:15;;;;;;;30.30;6.43;;;8.90;99.90;;;;;;4990073;28;20039;-61
2023/12/15 12:22:43;;;;;;;33.47;7.00;;;8.90;99.90;;;;;;4984413;28;20086;-64
2023/12/15 12:25:13;;;;;;;32.60;6.97;;;8.90;99.90;;;;;;4987021;28;20113;-65
2023/12/15 12:27:40;;;;;;;33.53;6.80;;;9.00;99.90;;;;;;4990573;28;20044;-62
2023/12/15 12:30:14;;;;;;;35.95;7.35;;;9.00;99.90;;;;;;4988892;28;20085;-64
2023/12/15 12:32:41;;;;;;;40.92;7.78;;;9.00;99.90;;;;;;4986699;28;20403;-63